Time;durP1;ratioP1;P1;durP2;ratioP2;P2;SDS_P1;SDS_P2;PMS_P1;PMS_P2;Temp;Humidity;BMP_temperature;BMP_pressure;BME280_temperature;BME280_humidity;BME280_pressure;Samples;Min_cycle;Max_cycle;Signal;HPM_P1;HPM_P2
2023/12/10 00:01:17;;;;;;;2.35;1.05;;;22.10;49.90;;;;;;4997226;28;20018;-69
2023/12/10 00:03:42;;;;;;;1.48;0.95;;;22.10;49.90;;;;;;4980816;28;20050;-68
2023/12/10 00:06:08;;;;;;;1.50;1.00;;;22.10;49.90;;;;;;4981886;28;20113;-68
2023/12/10 00:08:34;;;;;;;1.52;0.80;;;22.10;49.90;;;;;;4980208;28;20038;-68
2023/12/10 00:10:59;;;;;;;1.33;0.80;;;22.10;50.00;;;;;;4978867;28;20038;-68
2023/12/10 00:13:25;;;;;;;1.75;1.00;;;22.00;49.90;;;;;;4979998;28;20074;-69
2023/12/10 00:15:51;;;;;;;1.95;1.00;;;22.00;49.90;;;;;;4979561;28;20901;-68
2023/12/10 00:18:16;;;;;;;2.30;1.08;;;22.00;49.90;;;;;;4996748;28;20105;-68
2023/12/10 00:20:43;;;;;;;1.80;0.90;;;22.00;49.90;;;;;;4979699;28;20041;-69
2023/12/10 00:23:11;;;;;;;1.30;0.80;;;21.90;49.80;;;;;;4979545;28;20019;-69
2023/12/10 00:25:38;;;;;;;1.42;0.95;;;21.90;49.90;;;;;;4980185;28;20097;-69
2023/12/10 00:28:04;;;;;;;1.40;0.90;;;21.90;49.90;;;;;;4993888;28;20033;-69
2023/12/10 00:30:30;;;;;;;1.48;0.90;;;21.90;50.00;;;;;;4979522;28;20448;-68
2023/12/10 00:32:55;;;;;;;1.30;0.90;;;21.80;49.90;;;;;;4982108;28;20435;-68
2023/12/10 00:35:21;;;;;;;1.70;0.88;;;21.80;49.90;;;;;;4980228;28;20039;-69
2023/12/10 00:37:46;;;;;;;1.17;0.90;;;21.80;49.90;;;;;;4980497;28;20116;-69
2023/12/10 00:40:14;;;;;;;2.50;0.90;;;21.80;49.90;;;;;;4979791;28;20140;-67
2023/12/10 00:42:41;;;;;;;1.55;1.00;;;21.80;50.00;;;;;;4979955;28;20029;-69
2023/12/10 00:45:08;;;;;;;1.30;0.90;;;21.80;50.00;;;;;;4980737;28;20068;-69
2023/12/10 00:47:33;;;;;;;1.10;0.75;;;21.70;50.00;;;;;;4977665;28;20106;-69
2023/12/10 00:49:59;;;;;;;1.77;0.95;;;21.70;50.00;;;;;;4994564;28;20113;-69
2023/12/10 00:52:25;;;;;;;1.65;0.90;;;21.70;50.00;;;;;;4981644;28;20026;-69
2023/12/10 00:54:50;;;;;;;1.67;1.00;;;21.70;50.00;;;;;;4979254;28;20569;-69
2023/12/10 00:57:16;;;;;;;1.15;0.88;;;21.70;50.00;;;;;;4979531;28;20494;-69
2023/12/10 00:59:41;;;;;;;1.20;0.82;;;21.70;50.00;;;;;;4979887;28;20034;-69
2023/12/10 01:02:07;;;;;;;1.00;0.80;;;21.60;50.00;;;;;;4979703;28;20054;-70
2023/12/10 01:04:33;;;;;;;1.33;0.90;;;21.60;50.10;;;;;;4983076;28;20026;-69
2023/12/10 01:06:58;;;;;;;1.23;0.80;;;21.60;50.10;;;;;;4977449;28;20105;-69
2023/12/10 01:09:24;;;;;;;0.88;0.77;;;21.60;50.10;;;;;;4978305;28;20039;-69
2023/12/10 01:11:49;;;;;;;1.60;0.90;;;21.60;50.10;;;;;;4980127;28;20100;-70
2023/12/10 01:14:15;;;;;;;1.17;0.75;;;21.50;50.10;;;;;;4981515;28;20109;-70
2023/12/10 01:16:41;;;;;;;1.23;0.80;;;21.50;50.10;;;;;;4978916;28;20030;-70
2023/12/10 01:19:06;;;;;;;1.27;0.80;;;21.50;50.10;;;;;;4980925;28;20066;-70
2023/12/10 01:21:32;;;;;;;1.10;0.70;;;21.50;50.20;;;;;;4981249;28;20537;-70
2023/12/10 01:23:59;;;;;;;0.93;0.77;;;21.50;50.20;;;;;;4979190;28;20022;-70
2023/12/10 01:26:25;;;;;;;1.10;0.80;;;21.50;50.20;;;;;;4977702;28;20463;-70
2023/12/10 01:28:51;;;;;;;1.10;0.75;;;21.40;50.20;;;;;;4980006;28;20041;-70
2023/12/10 01:31:17;;;;;;;1.30;0.80;;;21.40;50.70;;;;;;4979319;28;20545;-70
2023/12/10 01:33:42;;;;;;;0.63;0.60;;;21.40;50.20;;;;;;4979217;28;20039;-70
2023/12/10 01:36:08;;;;;;;1.73;0.80;;;21.40;50.20;;;;;;4979542;28;20069;-70
2023/12/10 01:38:34;;;;;;;1.48;0.80;;;21.40;50.20;;;;;;4979993;28;20375;-70
2023/12/10 01:41:00;;;;;;;1.67;0.80;;;21.40;50.30;;;;;;4977750;28;20050;-69
2023/12/10 01:43:25;;;;;;;1.08;0.63;;;21.40;50.30;;;;;;4978931;28;20595;-70
2023/12/10 01:45:53;;;;;;;1.52;0.80;;;21.30;50.30;;;;;;4979311;28;20089;-70
2023/12/10 01:48:20;;;;;;;1.40;0.98;;;21.30;50.30;;;;;;4994829;28;20109;-70
2023/12/10 01:50:46;;;;;;;0.80;0.70;;;21.30;50.30;;;;;;4980651;28;20089;-67
2023/12/10 01:53:13;;;;;;;1.40;0.90;;;21.30;50.40;;;;;;4977715;28;20479;-67
2023/12/10 01:55:40;;;;;;;1.13;0.77;;;21.30;50.40;;;;;;4979502;28;20062;-67
2023/12/10 01:58:06;;;;;;;1.20;0.80;;;21.30;50.40;;;;;;4978219;28;20043;-67
2023/12/10 02:00:32;;;;;;;1.10;0.80;;;21.20;50.40;;;;;;4977888;28;20031;-67
2023/12/10 02:03:05;;;;;;;1.15;0.70;;;21.20;50.40;;;;;;4979180;28;20026;-66
2023/12/10 02:05:31;;;;;;;1.00;0.82;;;21.20;50.40;;;;;;4978735;28;20030;-68
2023/12/10 02:07:57;;;;;;;1.23;0.80;;;21.20;50.40;;;;;;4978723;28;20030;-66
2023/12/10 02:10:23;;;;;;;0.60;0.60;;;21.20;50.40;;;;;;4981755;28;20031;-67
2023/12/10 02:12:52;;;;;;;0.98;0.70;;;21.20;50.40;;;;;;4980570;28;20034;-67
2023/12/10 02:15:19;;;;;;;0.98;0.70;;;21.20;50.50;;;;;;4978829;28;20026;-67
2023/12/10 02:17:45;;;;;;;1.00;0.80;;;21.20;50.50;;;;;;4979217;28;20042;-67
2023/12/10 02:20:12;;;;;;;0.80;0.60;;;21.10;50.50;;;;;;4995046;28;20023;-67
2023/12/10 02:22:47;;;;;;;0.77;0.63;;;21.10;50.50;;;;;;4980030;28;20038;-68
2023/12/10 02:25:14;;;;;;;1.17;0.80;;;21.10;50.50;;;;;;4981173;28;20133;-68
2023/12/10 02:27:41;;;;;;;0.55;0.50;;;21.10;50.50;;;;;;4981995;28;20085;-67
2023/12/10 02:30:07;;;;;;;0.82;0.60;;;21.10;50.50;;;;;;4982914;28;20070;-68
2023/12/10 02:32:32;;;;;;;1.20;0.70;;;21.10;50.60;;;;;;4981793;28;20076;-68
2023/12/10 02:34:58;;;;;;;1.05;0.73;;;21.10;50.60;;;;;;4983574;28;20037;-68
2023/12/10 02:37:24;;;;;;;1.10;0.80;;;21.00;50.50;;;;;;4982398;28;20240;-68
2023/12/10 02:39:49;;;;;;;1.02;0.70;;;21.00;50.60;;;;;;4998116;28;20034;-68
2023/12/10 02:42:16;;;;;;;0.95;0.77;;;21.00;51.10;;;;;;4980602;28;20038;-68
2023/12/10 02:44:41;;;;;;;0.95;0.65;;;21.00;50.70;;;;;;4980955;28;20023;-68
2023/12/10 02:47:07;;;;;;;0.70;0.63;;;21.00;50.70;;;;;;4983101;28;20352;-68
2023/12/10 02:49:32;;;;;;;1.33;0.70;;;21.00;50.70;;;;;;4981819;28;20042;-67
2023/12/10 02:51:58;;;;;;;0.95;0.70;;;21.00;50.70;;;;;;4983147;28;20039;-68
2023/12/10 02:54:23;;;;;;;1.00;0.70;;;21.00;50.70;;;;;;4981178;28;20034;-68
2023/12/10 02:56:49;;;;;;;0.80;0.70;;;21.00;50.70;;;;;;4980149;28;20038;-67
2023/12/10 02:59:15;;;;;;;0.60;0.60;;;20.90;50.70;;;;;;4996242;28;20128;-68
2023/12/10 03:01:40;;;;;;;1.05;0.50;;;20.90;50.70;;;;;;4980520;28;20031;-68
2023/12/10 03:04:06;;;;;;;0.60;0.60;;;20.90;50.70;;;;;;4981319;28;20030;-67
2023/12/10 03:06:31;;;;;;;0.90;0.70;;;20.90;50.80;;;;;;4978705;28;20034;-68
2023/12/10 03:08:57;;;;;;;0.60;0.52;;;20.90;50.80;;;;;;4981650;28;20482;-68
2023/12/10 03:11:22;;;;;;;0.63;0.60;;;20.90;50.80;;;;;;4981981;28;20414;-69
2023/12/10 03:13:48;;;;;;;0.75;0.60;;;20.90;50.80;;;;;;4982104;28;20065;-69
2023/12/10 03:16:14;;;;;;;0.82;0.60;;;20.90;50.80;;;;;;4983744;28;20037;-69
2023/12/10 03:18:39;;;;;;;0.50;0.50;;;20.90;50.80;;;;;;4981515;28;20030;-69
2023/12/10 03:21:05;;;;;;;0.60;0.60;;;20.80;50.80;;;;;;4981351;28;20105;-69
2023/12/10 03:23:31;;;;;;;0.65;0.60;;;20.80;50.80;;;;;;4981877;28;20081;-69
2023/12/10 03:25:56;;;;;;;0.90;0.70;;;20.80;50.80;;;;;;4980114;28;20023;-69
2023/12/10 03:28:22;;;;;;;1.00;0.75;;;20.80;50.90;;;;;;4981852;28;20093;-69
2023/12/10 03:30:48;;;;;;;0.85;0.70;;;20.80;51.00;;;;;;4982357;28;20415;-69
2023/12/10 03:33:13;;;;;;;1.00;0.63;;;20.80;51.00;;;;;;4982871;28;20027;-67
2023/12/10 03:35:39;;;;;;;0.88;0.60;;;20.80;50.90;;;;;;4978560;28;20030;-68
2023/12/10 03:38:04;;;;;;;0.90;0.60;;;20.80;51.00;;;;;;4983554;28;20644;-67
2023/12/10 03:40:30;;;;;;;1.00;0.70;;;20.80;51.00;;;;;;4979938;28;20109;-66
2023/12/10 03:42:57;;;;;;;0.95;0.60;;;20.70;50.90;;;;;;4979580;28;20085;-67
2023/12/10 03:45:23;;;;;;;1.20;0.70;;;20.70;50.90;;;;;;4980984;28;20022;-67
2023/12/10 03:47:49;;;;;;;1.30;0.70;;;20.70;51.00;;;;;;4980192;28;20482;-67
2023/12/10 03:50:16;;;;;;;0.70;0.60;;;20.70;51.00;;;;;;4996301;28;20061;-67
2023/12/10 03:52:42;;;;;;;1.20;0.68;;;20.70;51.00;;;;;;4981937;28;20477;-66
2023/12/10 03:55:08;;;;;;;0.70;0.60;;;20.70;51.00;;;;;;4979960;28;20041;-66
2023/12/10 03:57:35;;;;;;;1.00;0.60;;;20.70;51.00;;;;;;4980291;28;20037;-67
2023/12/10 04:00:01;;;;;;;1.40;0.70;;;20.70;51.10;;;;;;4981226;28;20026;-67
2023/12/10 04:02:26;;;;;;;1.15;0.70;;;20.70;51.00;;;;;;4995601;28;20073;-66
2023/12/10 04:04:52;;;;;;;0.80;0.55;;;20.70;51.00;;;;;;4979863;28;20034;-66
2023/12/10 04:07:17;;;;;;;1.27;0.60;;;20.70;51.00;;;;;;4993709;28;20093;-67
2023/12/10 04:09:43;;;;;;;0.70;0.70;;;20.70;51.00;;;;;;4981824;28;20108;-66
2023/12/10 04:12:09;;;;;;;0.95;0.70;;;20.60;51.00;;;;;;4979937;28;20141;-68
2023/12/10 04:14:35;;;;;;;1.25;0.70;;;20.60;51.00;;;;;;4980328;28;20407;-68
2023/12/10 04:17:00;;;;;;;0.88;0.60;;;20.60;51.10;;;;;;4980107;28;20554;-67
2023/12/10 04:19:26;;;;;;;0.90;0.60;;;20.60;51.10;;;;;;4981373;28;20062;-67
2023/12/10 04:21:52;;;;;;;0.85;0.70;;;20.60;51.10;;;;;;4980290;28;20098;-70
2023/12/10 04:24:17;;;;;;;0.95;0.60;;;20.60;51.10;;;;;;4981064;28;20018;-70
2023/12/10 04:26:43;;;;;;;0.52;0.45;;;20.60;51.10;;;;;;4980369;28;20031;-70
2023/12/10 04:29:08;;;;;;;0.65;0.55;;;20.60;51.10;;;;;;4979464;28;20723;-70
2023/12/10 04:31:35;;;;;;;1.13;0.68;;;20.60;51.10;;;;;;4980085;28;20049;-70
2023/12/10 04:34:01;;;;;;;0.60;0.60;;;20.60;51.10;;;;;;4984068;28;20584;-70
2023/12/10 04:36:27;;;;;;;1.00;0.60;;;20.60;51.20;;;;;;4978259;28;20030;-70
2023/12/10 04:38:52;;;;;;;1.25;0.68;;;20.60;51.20;;;;;;4979296;28;20027;-70
2023/12/10 04:41:18;;;;;;;0.88;0.70;;;20.60;51.20;;;;;;4980009;28;20371;-67
2023/12/10 04:43:43;;;;;;;0.50;0.50;;;20.60;51.20;;;;;;4979322;28;20026;-67
2023/12/10 04:46:09;;;;;;;0.82;0.50;;;20.50;51.20;;;;;;4978245;28;20188;-68
2023/12/10 04:48:35;;;;;;;0.60;0.60;;;20.50;51.20;;;;;;4980458;28;20067;-67
2023/12/10 04:51:00;;;;;;;0.80;0.65;;;20.50;51.20;;;;;;4980339;28;20045;-67
2023/12/10 04:53:26;;;;;;;0.60;0.60;;;20.50;51.30;;;;;;4980235;28;20481;-66
2023/12/10 04:55:52;;;;;;;0.70;0.55;;;20.50;51.30;;;;;;4980276;28;20030;-67
2023/12/10 04:58:17;;;;;;;0.82;0.50;;;20.50;51.30;;;;;;4980177;28;20026;-67
2023/12/10 05:00:43;;;;;;;0.50;0.40;;;20.50;51.30;;;;;;4980796;28;20089;-67
2023/12/10 05:03:09;;;;;;;0.57;0.57;;;20.50;51.30;;;;;;4994936;28;20031;-66
2023/12/10 05:05:35;;;;;;;0.70;0.60;;;20.50;51.30;;;;;;4978398;28;20033;-67
2023/12/10 05:08:01;;;;;;;0.75;0.68;;;20.50;51.40;;;;;;4979818;28;20117;-67
2023/12/10 05:10:26;;;;;;;0.70;0.60;;;20.50;51.90;;;;;;4980931;28;20193;-66
2023/12/10 05:12:52;;;;;;;1.05;0.57;;;20.50;51.40;;;;;;4980692;28;20080;-67
2023/12/10 05:15:17;;;;;;;0.68;0.60;;;20.40;51.40;;;;;;4979880;28;20030;-66
2023/12/10 05:17:43;;;;;;;0.70;0.57;;;20.40;51.40;;;;;;4979066;28;20556;-67
2023/12/10 05:20:09;;;;;;;1.05;0.68;;;20.40;51.90;;;;;;4981707;28;20173;-67
2023/12/10 05:22:34;;;;;;;1.05;0.70;;;20.40;51.40;;;;;;4981019;28;20039;-67
2023/12/10 05:25:00;;;;;;;1.13;0.70;;;20.40;51.40;;;;;;4978914;28;20027;-67
2023/12/10 05:27:26;;;;;;;0.57;0.50;;;20.40;51.40;;;;;;4978854;28;20034;-67
2023/12/10 05:29:51;;;;;;;0.90;0.60;;;20.40;51.50;;;;;;4979133;28;20033;-67
2023/12/10 05:32:17;;;;;;;0.98;0.60;;;20.40;51.50;;;;;;4978395;28;20022;-70
2023/12/10 05:34:42;;;;;;;1.30;0.65;;;20.40;51.50;;;;;;4979696;28;20537;-70
2023/12/10 05:37:08;;;;;;;0.40;0.40;;;20.40;51.50;;;;;;4979469;28;20043;-70
2023/12/10 05:39:34;;;;;;;0.98;0.60;;;20.40;51.50;;;;;;4978943;28;20505;-70
2023/12/10 05:42:00;;;;;;;0.73;0.63;;;20.40;51.50;;;;;;4979763;28;20435;-70
2023/12/10 05:44:26;;;;;;;0.95;0.60;;;20.30;51.50;;;;;;4977546;28;20027;-70
2023/12/10 05:46:51;;;;;;;0.90;0.60;;;20.30;51.50;;;;;;4979539;28;20101;-70
2023/12/10 05:49:18;;;;;;;0.63;0.50;;;20.30;51.50;;;;;;4979919;28;20477;-70
2023/12/10 05:51:43;;;;;;;0.60;0.60;;;20.30;51.50;;;;;;4979155;28;20034;-66
2023/12/10 05:54:09;;;;;;;0.60;0.55;;;20.30;51.50;;;;;;4980383;28;20034;-66
2023/12/10 05:56:34;;;;;;;0.50;0.50;;;20.30;51.60;;;;;;4979605;28;20026;-68
2023/12/10 05:59:01;;;;;;;0.60;0.50;;;20.30;51.60;;;;;;4982353;28;20037;-67
2023/12/10 06:01:27;;;;;;;1.05;0.70;;;20.30;51.60;;;;;;4980568;28;20031;-67
2023/12/10 06:03:52;;;;;;;1.00;0.70;;;20.30;51.60;;;;;;4999554;28;20430;-66
2023/12/10 06:06:18;;;;;;;1.13;0.50;;;20.30;51.70;;;;;;4985022;28;20121;-68
2023/12/10 06:08:43;;;;;;;1.13;0.60;;;20.20;51.60;;;;;;4982487;28;20023;-67
2023/12/10 06:11:09;;;;;;;0.60;0.60;;;20.30;51.70;;;;;;4979362;28;20549;-67
2023/12/10 06:13:35;;;;;;;0.50;0.50;;;20.30;51.70;;;;;;4982044;28;20432;-67
2023/12/10 06:16:00;;;;;;;0.75;0.50;;;20.30;51.70;;;;;;4982562;28;20097;-66
2023/12/10 06:18:26;;;;;;;0.73;0.50;;;20.30;51.70;;;;;;4981846;28;20031;-67
2023/12/10 06:20:51;;;;;;;0.70;0.60;;;20.30;51.80;;;;;;4983058;28;20034;-67
2023/12/10 06:23:17;;;;;;;0.50;0.50;;;20.20;51.70;;;;;;4982161;28;20031;-66
2023/12/10 06:25:43;;;;;;;0.57;0.50;;;20.20;51.70;;;;;;4981502;28;20089;-67
2023/12/10 06:28:08;;;;;;;0.40;0.40;;;20.30;51.80;;;;;;4981840;28;20494;-66
2023/12/10 06:30:34;;;;;;;0.63;0.50;;;20.30;51.80;;;;;;4981941;28;20113;-67
2023/12/10 06:32:59;;;;;;;0.50;0.50;;;20.30;51.80;;;;;;4984043;28;20030;-66
2023/12/10 06:35:25;;;;;;;0.52;0.50;;;20.20;51.80;;;;;;4982957;28;20440;-67
2023/12/10 06:37:50;;;;;;;0.95;0.70;;;20.20;51.80;;;;;;4982277;28;20035;-66
2023/12/10 06:40:16;;;;;;;1.17;0.60;;;20.20;51.80;;;;;;4997433;28;20161;-67
2023/12/10 06:42:42;;;;;;;0.45;0.43;;;20.20;51.80;;;;;;4983786;28;20026;-70
2023/12/10 06:45:08;;;;;;;1.02;0.70;;;20.20;51.80;;;;;;4980822;28;20097;-69
2023/12/10 06:47:34;;;;;;;0.77;0.60;;;20.20;51.80;;;;;;4981237;28;20046;-69
2023/12/10 06:50:00;;;;;;;0.65;0.57;;;20.20;51.80;;;;;;4983108;28;20487;-69
2023/12/10 06:52:25;;;;;;;0.65;0.50;;;20.20;51.80;;;;;;4982177;28;20054;-69
2023/12/10 06:54:51;;;;;;;1.17;0.60;;;20.20;51.90;;;;;;4981473;28;20029;-69
2023/12/10 06:57:16;;;;;;;0.70;0.60;;;20.20;51.90;;;;;;4998492;28;20046;-69
2023/12/10 06:59:42;;;;;;;0.70;0.50;;;20.10;51.80;;;;;;4994472;28;20050;-69
2023/12/10 07:02:08;;;;;;;0.80;0.60;;;20.20;51.90;;;;;;4982924;28;20023;-68
2023/12/10 07:04:33;;;;;;;0.77;0.60;;;20.10;51.90;;;;;;4982554;28;20041;-67
2023/12/10 07:06:59;;;;;;;0.65;0.60;;;20.20;51.90;;;;;;4981135;28;20029;-67
2023/12/10 07:09:25;;;;;;;1.00;0.52;;;20.20;52.00;;;;;;4978827;28;20482;-67
2023/12/10 07:11:51;;;;;;;0.70;0.60;;;20.10;51.90;;;;;;4979466;28;20411;-67
2023/12/10 07:14:16;;;;;;;1.08;0.63;;;20.10;51.90;;;;;;4981569;28;20113;-67
2023/12/10 07:16:42;;;;;;;0.80;0.57;;;20.10;51.90;;;;;;4982378;28;20030;-67
2023/12/10 07:19:08;;;;;;;0.57;0.50;;;20.10;51.90;;;;;;4979274;28;20023;-67
2023/12/10 07:21:33;;;;;;;0.77;0.60;;;20.10;51.90;;;;;;4980369;28;20038;-67
2023/12/10 07:23:59;;;;;;;0.98;0.50;;;20.10;51.90;;;;;;4980928;28;20034;-67
2023/12/10 07:26:25;;;;;;;0.55;0.40;;;20.10;51.90;;;;;;4979139;28;20027;-68
2023/12/10 07:28:51;;;;;;;1.15;0.60;;;20.10;51.90;;;;;;4981646;28;20038;-67
2023/12/10 07:31:20;;;;;;;0.70;0.45;;;20.10;52.00;;;;;;4978606;28;20509;-67
2023/12/10 07:33:46;;;;;;;0.95;0.63;;;20.10;52.00;;;;;;4984616;28;20037;-67
2023/12/10 07:36:12;;;;;;;0.73;0.50;;;20.10;52.00;;;;;;4979184;28;20137;-67
2023/12/10 07:38:38;;;;;;;0.85;0.60;;;20.10;52.00;;;;;;4979619;28;20031;-67
2023/12/10 07:41:04;;;;;;;1.08;0.60;;;20.10;52.00;;;;;;4979349;28;20038;-68
2023/12/10 07:43:30;;;;;;;0.47;0.47;;;20.10;52.00;;;;;;4982158;28;20710;-67
2023/12/10 07:45:56;;;;;;;0.90;0.57;;;20.10;52.00;;;;;;4979561;28;20915;-67
2023/12/10 07:48:22;;;;;;;0.90;0.50;;;20.10;52.00;;;;;;4980660;28;20035;-67
2023/12/10 07:50:47;;;;;;;1.15;0.70;;;20.10;52.00;;;;;;4978023;28;20031;-67
2023/12/10 07:53:13;;;;;;;0.80;0.50;;;20.00;51.90;;;;;;4980780;28;20069;-70
2023/12/10 07:55:39;;;;;;;0.73;0.52;;;20.10;52.00;;;;;;4978849;28;20035;-70
2023/12/10 07:58:05;;;;;;;0.90;0.60;;;20.00;51.90;;;;;;4982527;28;20061;-70
2023/12/10 08:00:30;;;;;;;0.95;0.57;;;20.00;51.90;;;;;;4995014;28;20096;-69
2023/12/10 08:02:56;;;;;;;1.00;0.60;;;20.00;51.90;;;;;;4981852;28;20109;-70
2023/12/10 08:05:21;;;;;;;0.52;0.50;;;20.00;52.00;;;;;;4980858;28;20490;-70
2023/12/10 08:07:47;;;;;;;0.60;0.50;;;20.00;51.80;;;;;;4980956;28;20019;-70
2023/12/10 08:10:13;;;;;;;0.70;0.50;;;20.00;51.80;;;;;;4981934;28;20379;-70
2023/12/10 08:12:39;;;;;;;1.50;0.60;;;20.00;51.80;;;;;;4980313;28;20062;-67
2023/12/10 08:15:05;;;;;;;0.93;0.55;;;20.00;51.80;;;;;;4980083;28;20367;-67
2023/12/10 08:17:31;;;;;;;0.80;0.60;;;20.00;51.70;;;;;;4983078;28;20031;-68
2023/12/10 08:19:57;;;;;;;1.10;0.70;;;20.00;51.70;;;;;;4983035;28;20494;-68
2023/12/10 08:22:22;;;;;;;1.02;0.60;;;20.00;51.70;;;;;;4978816;28;20462;-68
2023/12/10 08:24:48;;;;;;;0.77;0.50;;;20.00;51.70;;;;;;4994322;28;20231;-68
2023/12/10 08:27:14;;;;;;;0.55;0.50;;;20.00;51.80;;;;;;4978466;28;20118;-67
2023/12/10 08:29:40;;;;;;;0.68;0.50;;;20.00;51.80;;;;;;4977184;28;20448;-67
2023/12/10 08:32:05;;;;;;;0.70;0.60;;;20.00;52.30;;;;;;4979505;28;20034;-68
2023/12/10 08:34:31;;;;;;;0.85;0.57;;;19.90;51.80;;;;;;4979830;28;20492;-67
2023/12/10 08:36:57;;;;;;;1.60;0.60;;;20.00;51.90;;;;;;4981079;28;20030;-67
2023/12/10 08:39:22;;;;;;;0.52;0.50;;;19.90;51.90;;;;;;4978631;28;20027;-67
2023/12/10 08:41:48;;;;;;;0.88;0.57;;;19.90;51.90;;;;;;4980162;28;20466;-67
2023/12/10 08:44:14;;;;;;;0.60;0.50;;;19.90;51.90;;;;;;4977645;28;20041;-68
2023/12/10 08:46:39;;;;;;;0.50;0.50;;;19.90;52.00;;;;;;4979336;28;20128;-68
2023/12/10 08:49:05;;;;;;;1.50;0.70;;;19.90;52.00;;;;;;4980106;28;20088;-68
2023/12/10 08:51:30;;;;;;;1.27;0.60;;;19.90;52.00;;;;;;4980962;28;20109;-68
2023/12/10 08:53:59;;;;;;;0.70;0.55;;;19.90;52.00;;;;;;4980362;28;20034;-68
2023/12/10 08:56:25;;;;;;;0.60;0.60;;;19.90;52.00;;;;;;4977707;28;20430;-68
2023/12/10 08:58:51;;;;;;;1.50;0.60;;;19.90;52.00;;;;;;4996413;28;20793;-68
2023/12/10 09:01:16;;;;;;;1.15;0.70;;;19.90;52.10;;;;;;4996512;28;20031;-68
2023/12/10 09:03:42;;;;;;;0.80;0.60;;;19.90;52.10;;;;;;4993987;28;20125;-70
2023/12/10 09:06:09;;;;;;;1.55;0.70;;;19.90;52.10;;;;;;4981051;28;20519;-70
2023/12/10 09:08:34;;;;;;;0.93;0.60;;;19.90;52.20;;;;;;4979882;28;20477;-70
2023/12/10 09:11:03;;;;;;;1.05;0.63;;;19.80;52.10;;;;;;4979212;28;20031;-70
2023/12/10 09:13:30;;;;;;;0.85;0.60;;;19.90;52.20;;;;;;4979798;28;20114;-68
2023/12/10 09:15:56;;;;;;;0.95;0.60;;;19.80;52.10;;;;;;4993471;28;20510;-68
2023/12/10 09:18:21;;;;;;;1.67;0.63;;;19.80;52.10;;;;;;4981019;28;20037;-68
2023/12/10 09:20:48;;;;;;;1.55;0.50;;;19.80;52.10;;;;;;4980229;28;20383;-68
2023/12/10 09:23:14;;;;;;;0.80;0.50;;;19.80;52.10;;;;;;4980625;28;20031;-70
2023/12/10 09:25:39;;;;;;;1.42;0.70;;;19.80;52.20;;;;;;4979956;28;20540;-70
2023/12/10 09:28:05;;;;;;;0.88;0.50;;;19.80;52.10;;;;;;4979708;28;20084;-70
2023/12/10 09:30:30;;;;;;;0.63;0.50;;;19.80;52.20;;;;;;4978764;28;20039;-70
2023/12/10 09:32:58;;;;;;;0.73;0.50;;;19.80;52.20;;;;;;4982690;28;20042;-70
2023/12/10 09:35:23;;;;;;;0.77;0.50;;;19.80;52.20;;;;;;4985458;28;20037;-70
2023/12/10 09:37:49;;;;;;;1.48;0.60;;;19.80;52.20;;;;;;4981354;28;20034;-70
2023/12/10 09:40:15;;;;;;;1.63;0.70;;;19.80;52.30;;;;;;4981340;28;20489;-70
2023/12/10 09:42:40;;;;;;;0.73;0.50;;;19.80;52.20;;;;;;4982714;28;20022;-70
2023/12/10 09:45:07;;;;;;;0.90;0.60;;;19.80;52.30;;;;;;4982912;28;20466;-70
2023/12/10 09:47:34;;;;;;;0.65;0.55;;;19.80;52.30;;;;;;4984131;28;20027;-70
2023/12/10 09:50:01;;;;;;;0.85;0.60;;;19.80;52.30;;;;;;4982558;28;20046;-70
2023/12/10 09:52:27;;;;;;;0.70;0.50;;;19.80;52.30;;;;;;4983090;28;20451;-70
2023/12/10 09:54:53;;;;;;;1.05;0.70;;;19.80;52.30;;;;;;4983280;28;20030;-69
2023/12/10 09:57:22;;;;;;;1.00;0.57;;;19.80;52.30;;;;;;4982530;28;20081;-70
2023/12/10 09:59:48;;;;;;;1.52;0.65;;;19.80;52.30;;;;;;4982317;28;20628;-70
2023/12/10 10:02:15;;;;;;;1.20;0.60;;;19.80;52.30;;;;;;4983679;28;20039;-70
2023/12/10 10:04:42;;;;;;;0.85;0.63;;;19.80;52.40;;;;;;4984339;28;20054;-70
2023/12/10 10:07:08;;;;;;;1.20;0.60;;;19.80;52.40;;;;;;4983886;28;20391;-70
2023/12/10 10:09:37;;;;;;;1.60;0.60;;;19.80;52.40;;;;;;4985252;28;20037;-70
2023/12/10 10:12:03;;;;;;;2.20;1.02;;;19.80;52.40;;;;;;4983812;28;20030;-70
2023/12/10 10:14:29;;;;;;;1.40;0.70;;;19.80;52.40;;;;;;4981631;28;20053;-70
2023/12/10 10:16:54;;;;;;;1.88;0.80;;;19.70;52.40;;;;;;4982985;28;20426;-70
2023/12/10 10:19:20;;;;;;;1.45;0.70;;;19.70;52.40;;;;;;4982152;28;20526;-70
2023/12/10 10:21:46;;;;;;;1.20;0.60;;;19.70;52.40;;;;;;4982497;28;20070;-70
2023/12/10 10:24:12;;;;;;;0.95;0.60;;;19.70;52.40;;;;;;4981067;28;20027;-69
2023/12/10 10:26:39;;;;;;;1.33;0.70;;;19.70;52.90;;;;;;4982436;28;20394;-69
2023/12/10 10:29:07;;;;;;;1.17;0.70;;;19.70;52.40;;;;;;4982095;28;20443;-69
2023/12/10 10:31:34;;;;;;;1.75;0.70;;;19.70;52.40;;;;;;4981521;28;20065;-70
2023/12/10 10:34:04;;;;;;;0.88;0.60;;;19.70;52.90;;;;;;4982226;28;20042;-67
2023/12/10 10:36:31;;;;;;;1.15;0.73;;;19.70;52.40;;;;;;4983264;28;20096;-66
2023/12/10 10:38:57;;;;;;;0.80;0.60;;;19.70;52.40;;;;;;4983363;28;20045;-68
2023/12/10 10:41:22;;;;;;;2.28;1.08;;;19.70;52.40;;;;;;4979296;28;20434;-67
2023/12/10 10:43:49;;;;;;;1.20;0.70;;;19.70;52.50;;;;;;4978685;28;20041;-67
2023/12/10 10:46:19;;;;;;;2.67;0.88;;;19.70;52.50;;;;;;4981427;28;20023;-67
2023/12/10 10:48:47;;;;;;;1.70;0.90;;;19.70;52.50;;;;;;4982125;28;20077;-66
2023/12/10 10:51:13;;;;;;;1.50;0.80;;;19.70;52.50;;;;;;4980006;28;20351;-66
2023/12/10 10:53:40;;;;;;;1.33;0.80;;;19.70;52.50;;;;;;4980225;28;20061;-66
2023/12/10 10:56:07;;;;;;;1.48;0.85;;;19.70;52.60;;;;;;4980319;28;20125;-66
2023/12/10 10:58:33;;;;;;;1.20;0.80;;;19.70;52.60;;;;;;4997454;28;20506;-66
2023/12/10 11:00:59;;;;;;;1.88;0.85;;;19.70;52.60;;;;;;4981942;28;20039;-66
2023/12/10 11:03:26;;;;;;;1.70;0.80;;;19.70;52.60;;;;;;4982882;28;20471;-66
2023/12/10 11:05:55;;;;;;;2.13;1.00;;;19.70;52.60;;;;;;4983583;28;20470;-65
2023/12/10 11:08:23;;;;;;;1.48;1.02;;;19.70;52.60;;;;;;4980964;28;20398;-67
2023/12/10 11:10:55;;;;;;;1.73;1.10;;;19.70;52.60;;;;;;4981453;28;20035;-65
2023/12/10 11:13:42;;;;;;;1.80;1.10;;;19.70;52.60;;;;;;4979794;28;20062;-67
2023/12/10 11:16:08;;;;;;;1.20;0.80;;;19.70;52.70;;;;;;4980619;28;20609;-67
2023/12/10 11:18:58;;;;;;;2.03;0.95;;;19.70;52.70;;;;;;4994932;28;20034;-66
2023/12/10 11:21:24;;;;;;;1.75;1.00;;;19.70;52.80;;;;;;4982066;28;20026;-66
2023/12/10 11:23:51;;;;;;;2.75;1.10;;;19.70;52.70;;;;;;4979625;28;20031;-66
2023/12/10 11:26:17;;;;;;;2.08;0.98;;;19.70;52.80;;;;;;4981683;28;20026;-66
2023/12/10 11:28:43;;;;;;;2.65;1.20;;;19.70;53.40;;;;;;4998768;28;20500;-67
2023/12/10 11:31:09;;;;;;;2.85;1.17;;;19.70;53.20;;;;;;4996407;28;20026;-66
2023/12/10 11:33:40;;;;;;;3.67;1.25;;;19.70;53.70;;;;;;4997194;28;20026;-66
2023/12/10 11:36:09;;;;;;;2.67;1.20;;;19.80;53.70;;;;;;4980383;28;20489;-66
2023/12/10 11:38:35;;;;;;;2.55;1.17;;;19.70;53.50;;;;;;4979701;28;20491;-65
2023/12/10 11:41:03;;;;;;;4.05;1.50;;;19.70;53.50;;;;;;4981369;28;20026;-66
2023/12/10 11:43:29;;;;;;;3.92;1.80;;;19.70;53.60;;;;;;4982000;28;20027;-68
2023/12/10 11:45:54;;;;;;;4.28;1.60;;;19.70;53.80;;;;;;4980082;28;20025;-68
2023/12/10 11:48:20;;;;;;;5.68;2.35;;;19.80;54.00;;;;;;4979680;28;20034;-67
2023/12/10 11:50:46;;;;;;;4.90;2.03;;;19.70;54.20;;;;;;4981880;28;20129;-67
2023/12/10 11:53:15;;;;;;;5.53;2.50;;;19.70;54.60;;;;;;4981753;28;20034;-67
2023/12/10 11:55:41;;;;;;;5.03;1.95;;;19.70;54.80;;;;;;4995626;28;20538;-67
2023/12/10 11:58:07;;;;;;;4.82;2.15;;;19.70;54.80;;;;;;4981097;28;20391;-68
2023/12/10 12:00:35;;;;;;;5.70;2.53;;;19.70;55.00;;;;;;4976587;28;20047;-67
2023/12/10 12:03:06;;;;;;;5.38;2.30;;;19.70;55.10;;;;;;4981159;28;20492;-67
2023/12/10 12:05:32;;;;;;;5.65;2.58;;;19.70;55.10;;;;;;4981686;28;20019;-66
2023/12/10 12:08:00;;;;;;;5.40;2.30;;;19.80;55.50;;;;;;4981842;28;20139;-67
2023/12/10 12:10:36;;;;;;;5.45;2.58;;;19.80;55.60;;;;;;4982023;28;20661;-67
2023/12/10 12:13:02;;;;;;;7.18;3.15;;;19.70;55.90;;;;;;4979114;28;20097;-67
2023/12/10 12:15:27;;;;;;;4.82;2.20;;;19.70;55.90;;;;;;4979658;28;20109;-67
2023/12/10 12:17:53;;;;;;;6.25;2.60;;;19.80;55.90;;;;;;4977432;28;20109;-66
2023/12/10 12:20:22;;;;;;;6.82;2.78;;;19.80;56.10;;;;;;4994884;28;20467;-66
2023/12/10 12:22:48;;;;;;;6.28;2.78;;;19.80;56.00;;;;;;4980991;28;20023;-67
2023/12/10 12:25:14;;;;;;;7.80;3.15;;;19.80;55.80;;;;;;4980924;28;20410;-67
2023/12/10 12:27:40;;;;;;;8.10;3.30;;;19.80;55.70;;;;;;4978609;28;20400;-67
2023/12/10 12:30:06;;;;;;;6.60;3.08;;;19.70;55.50;;;;;;4976971;28;20032;-67
2023/12/10 12:32:31;;;;;;;6.95;2.85;;;19.80;55.40;;;;;;4980563;28;20576;-67
2023/12/10 12:34:57;;;;;;;4.93;2.35;;;19.80;55.40;;;;;;4979501;28;20034;-66
2023/12/10 12:37:23;;;;;;;6.38;2.40;;;19.80;55.40;;;;;;4980528;28;20031;-66
2023/12/10 12:39:50;;;;;;;6.07;2.67;;;19.80;55.10;;;;;;4981575;28;20030;-66
2023/12/10 12:42:15;;;;;;;6.05;2.33;;;19.80;55.10;;;;;;4981873;28;20034;-66